sensor_id;sensor_type;location;lat;lon;timestamp;P1;durP1;ratioP1;P2;durP2;ratioP2
23754;SDS011;12057;52.042;6.830;2023-03-01T00:07:38;22.60;;;7.60;;
23754;SDS011;12057;52.042;6.830;2023-03-01T00:17:40;16.27;;;6.93;;
23754;SDS011;12057;52.042;6.830;2023-03-01T00:27:41;27.17;;;7.53;;
23754;SDS011;12057;52.042;6.830;2023-03-01T00:37:42;17.40;;;7.77;;
23754;SDS011;12057;52.042;6.830;2023-03-01T00:42:43;18.80;;;8.10;;
23754;SDS011;12057;52.042;6.830;2023-03-01T00:52:45;19.43;;;7.83;;
23754;SDS011;12057;52.042;6.830;2023-03-01T00:57:46;20.05;;;7.55;;
23754;SDS011;12057;52.042;6.830;2023-03-01T01:07:47;14.70;;;7.10;;
23754;SDS011;12057;52.042;6.830;2023-03-01T01:12:48;19.02;;;7.55;;
23754;SDS011;12057;52.042;6.830;2023-03-01T01:22:49;19.37;;;7.57;;
23754;SDS011;12057;52.042;6.830;2023-03-01T01:27:51;21.20;;;7.43;;
23754;SDS011;12057;52.042;6.830;2023-03-01T01:37:52;19.33;;;6.83;;
23754;SDS011;12057;52.042;6.830;2023-03-01T01:42:53;13.50;;;6.57;;
23754;SDS011;12057;52.042;6.830;2023-03-01T01:47:54;25.05;;;7.93;;
23754;SDS011;12057;52.042;6.830;2023-03-01T01:52:58;14.98;;;7.72;;
23754;SDS011;12057;52.042;6.830;2023-03-01T02:03:13;20.88;;;7.45;;
23754;SDS011;12057;52.042;6.830;2023-03-01T02:08:18;18.48;;;7.65;;
23754;SDS011;12057;52.042;6.830;2023-03-01T02:13:20;18.48;;;8.18;;
23754;SDS011;12057;52.042;6.830;2023-03-01T02:18:21;17.67;;;8.25;;
23754;SDS011;12057;52.042;6.830;2023-03-01T02:23:24;21.92;;;8.07;;
23754;SDS011;12057;52.042;6.830;2023-03-01T02:28:28;18.55;;;7.18;;
23754;SDS011;12057;52.042;6.830;2023-03-01T02:33:34;15.48;;;7.50;;
23754;SDS011;12057;52.042;6.830;2023-03-01T02:38:37;18.88;;;7.55;;
23754;SDS011;12057;52.042;6.830;2023-03-01T02:43:39;21.45;;;8.00;;
23754;SDS011;12057;52.042;6.830;2023-03-01T02:48:50;15.80;;;7.70;;
23754;SDS011;12057;52.042;6.830;2023-03-01T02:59:29;20.17;;;7.93;;
23754;SDS011;12057;52.042;6.830;2023-03-01T03:04:39;17.92;;;8.02;;
23754;SDS011;12057;52.042;6.830;2023-03-01T03:09:40;17.70;;;7.72;;
23754;SDS011;12057;52.042;6.830;2023-03-01T03:14:41;19.20;;;7.45;;
23754;SDS011;12057;52.042;6.830;2023-03-01T03:19:42;16.55;;;7.82;;
23754;SDS011;12057;52.042;6.830;2023-03-01T03:24:45;22.20;;;8.98;;
23754;SDS011;12057;52.042;6.830;2023-03-01T03:29:46;15.82;;;7.32;;
23754;SDS011;12057;52.042;6.830;2023-03-01T03:34:46;20.48;;;8.02;;
23754;SDS011;12057;52.042;6.830;2023-03-01T03:39:48;21.20;;;7.95;;
23754;SDS011;12057;52.042;6.830;2023-03-01T03:44:49;20.77;;;8.52;;
23754;SDS011;12057;52.042;6.830;2023-03-01T03:49:49;19.30;;;7.75;;
23754;SDS011;12057;52.042;6.830;2023-03-01T03:54:50;20.52;;;7.60;;
23754;SDS011;12057;52.042;6.830;2023-03-01T03:59:51;29.92;;;7.82;;
23754;SDS011;12057;52.042;6.830;2023-03-01T04:04:52;18.50;;;8.18;;
23754;SDS011;12057;52.042;6.830;2023-03-01T04:09:52;17.10;;;7.53;;
23754;SDS011;12057;52.042;6.830;2023-03-01T04:14:53;16.33;;;8.18;;
23754;SDS011;12057;52.042;6.830;2023-03-01T04:20:00;22.55;;;7.47;;
23754;SDS011;12057;52.042;6.830;2023-03-01T04:25:05;20.80;;;8.23;;
23754;SDS011;12057;52.042;6.830;2023-03-01T04:30:07;15.88;;;7.45;;
23754;SDS011;12057;52.042;6.830;2023-03-01T04:35:09;23.33;;;9.27;;
23754;SDS011;12057;52.042;6.830;2023-03-01T04:40:10;44.17;;;14.20;;
23754;SDS011;12057;52.042;6.830;2023-03-01T04:45:16;19.50;;;9.25;;
23754;SDS011;12057;52.042;6.830;2023-03-01T04:50:17;22.70;;;7.40;;
23754;SDS011;12057;52.042;6.830;2023-03-01T04:55:24;17.63;;;8.18;;
23754;SDS011;12057;52.042;6.830;2023-03-01T05:00:26;27.45;;;9.15;;
23754;SDS011;12057;52.042;6.830;2023-03-01T05:10:33;21.15;;;8.82;;
23754;SDS011;12057;52.042;6.830;2023-03-01T05:15:35;31.88;;;11.60;;
23754;SDS011;12057;52.042;6.830;2023-03-01T05:20:36;23.23;;;10.05;;
23754;SDS011;12057;52.042;6.830;2023-03-01T05:25:38;25.95;;;10.27;;
23754;SDS011;12057;52.042;6.830;2023-03-01T05:30:40;28.17;;;9.50;;
23754;SDS011;12057;52.042;6.830;2023-03-01T05:35:44;27.42;;;8.73;;
23754;SDS011;12057;52.042;6.830;2023-03-01T05:40:46;34.05;;;9.75;;
23754;SDS011;12057;52.042;6.830;2023-03-01T05:45:48;22.10;;;9.30;;
23754;SDS011;12057;52.042;6.830;2023-03-01T05:50:49;21.52;;;10.32;;
23754;SDS011;12057;52.042;6.830;2023-03-01T05:55:50;24.35;;;8.60;;
23754;SDS011;12057;52.042;6.830;2023-03-01T06:00:51;18.35;;;8.90;;
23754;SDS011;12057;52.042;6.830;2023-03-01T06:05:56;20.27;;;9.10;;
23754;SDS011;12057;52.042;6.830;2023-03-01T06:10:57;30.58;;;10.98;;
23754;SDS011;12057;52.042;6.830;2023-03-01T06:15:58;26.58;;;11.13;;
23754;SDS011;12057;52.042;6.830;2023-03-01T06:20:59;25.95;;;10.30;;
23754;SDS011;12057;52.042;6.830;2023-03-01T06:26:00;23.23;;;9.57;;
23754;SDS011;12057;52.042;6.830;2023-03-01T06:31:04;23.50;;;9.23;;
23754;SDS011;12057;52.042;6.830;2023-03-01T06:36:08;23.15;;;10.18;;
23754;SDS011;12057;52.042;6.830;2023-03-01T06:41:10;22.13;;;9.77;;
23754;SDS011;12057;52.042;6.830;2023-03-01T06:46:10;22.40;;;10.25;;
23754;SDS011;12057;52.042;6.830;2023-03-01T06:51:11;34.20;;;12.27;;
23754;SDS011;12057;52.042;6.830;2023-03-01T06:56:12;29.30;;;10.93;;
23754;SDS011;12057;52.042;6.830;2023-03-01T07:01:13;29.00;;;12.30;;
23754;SDS011;12057;52.042;6.830;2023-03-01T07:06:13;26.25;;;11.32;;
23754;SDS011;12057;52.042;6.830;2023-03-01T07:11:14;23.25;;;10.73;;
23754;SDS011;12057;52.042;6.830;2023-03-01T07:16:15;41.78;;;10.85;;
23754;SDS011;12057;52.042;6.830;2023-03-01T07:21:16;29.02;;;10.75;;
23754;SDS011;12057;52.042;6.830;2023-03-01T07:26:17;20.38;;;9.57;;
23754;SDS011;12057;52.042;6.830;2023-03-01T07:31:18;26.75;;;10.95;;
23754;SDS011;12057;52.042;6.830;2023-03-01T07:41:19;28.07;;;9.30;;
23754;SDS011;12057;52.042;6.830;2023-03-01T07:51:20;22.27;;;9.13;;
23754;SDS011;12057;52.042;6.830;2023-03-01T08:01:22;23.00;;;10.57;;
23754;SDS011;12057;52.042;6.830;2023-03-01T08:06:23;21.75;;;9.73;;
23754;SDS011;12057;52.042;6.830;2023-03-01T08:11:24;22.00;;;9.75;;
23754;SDS011;12057;52.042;6.830;2023-03-01T08:16:25;30.83;;;9.73;;
23754;SDS011;12057;52.042;6.830;2023-03-01T08:21:26;18.20;;;8.60;;
23754;SDS011;12057;52.042;6.830;2023-03-01T08:26:26;29.98;;;8.35;;
23754;SDS011;12057;52.042;6.830;2023-03-01T08:31:29;21.88;;;8.60;;
23754;SDS011;12057;52.042;6.830;2023-03-01T08:36:32;20.65;;;8.43;;
23754;SDS011;12057;52.042;6.830;2023-03-01T08:41:38;19.77;;;8.30;;
23754;SDS011;12057;52.042;6.830;2023-03-01T08:51:41;16.50;;;7.53;;
23754;SDS011;12057;52.042;6.830;2023-03-01T08:56:42;22.00;;;8.23;;
23754;SDS011;12057;52.042;6.830;2023-03-01T09:01:44;20.48;;;7.85;;
23754;SDS011;12057;52.042;6.830;2023-03-01T09:06:45;17.13;;;7.28;;
23754;SDS011;12057;52.042;6.830;2023-03-01T09:11:46;16.67;;;7.73;;
23754;SDS011;12057;52.042;6.830;2023-03-01T09:16:49;17.63;;;7.55;;
23754;SDS011;12057;52.042;6.830;2023-03-01T09:21:50;18.23;;;7.60;;
23754;SDS011;12057;52.042;6.830;2023-03-01T09:26:56;18.52;;;7.13;;
23754;SDS011;12057;52.042;6.830;2023-03-01T09:32:00;18.13;;;6.47;;
23754;SDS011;12057;52.042;6.830;2023-03-01T09:37:01;16.40;;;8.02;;
23754;SDS011;12057;52.042;6.830;2023-03-01T09:42:02;17.80;;;7.07;;
23754;SDS011;12057;52.042;6.830;2023-03-01T09:47:04;16.10;;;7.03;;
23754;SDS011;12057;52.042;6.830;2023-03-01T09:53:00;16.58;;;7.15;;
23754;SDS011;12057;52.042;6.830;2023-03-01T10:14:35;15.75;;;6.90;;
23754;SDS011;12057;52.042;6.830;2023-03-01T10:19:59;12.32;;;5.60;;
23754;SDS011;12057;52.042;6.830;2023-03-01T10:25:36;16.58;;;6.60;;
23754;SDS011;12057;52.042;6.830;2023-03-01T10:30:59;17.88;;;6.63;;
23754;SDS011;12057;52.042;6.830;2023-03-01T10:36:00;19.00;;;7.43;;
23754;SDS011;12057;52.042;6.830;2023-03-01T10:51:31;17.40;;;7.47;;
23754;SDS011;12057;52.042;6.830;2023-03-01T10:56:45;15.38;;;6.55;;
23754;SDS011;12057;52.042;6.830;2023-03-01T11:01:53;20.08;;;8.38;;
23754;SDS011;12057;52.042;6.830;2023-03-01T11:07:02;14.52;;;7.93;;
23754;SDS011;12057;52.042;6.830;2023-03-01T11:12:03;17.02;;;7.80;;
23754;SDS011;12057;52.042;6.830;2023-03-01T11:17:29;20.23;;;8.13;;
23754;SDS011;12057;52.042;6.830;2023-03-01T11:22:32;16.70;;;8.23;;
23754;SDS011;12057;52.042;6.830;2023-03-01T11:27:37;21.13;;;8.43;;
23754;SDS011;12057;52.042;6.830;2023-03-01T11:38:23;17.65;;;7.85;;
23754;SDS011;12057;52.042;6.830;2023-03-01T12:09:24;15.27;;;7.00;;
23754;SDS011;12057;52.042;6.830;2023-03-01T12:25:18;15.98;;;7.38;;
23754;SDS011;12057;52.042;6.830;2023-03-01T12:30:26;15.07;;;7.47;;
23754;SDS011;12057;52.042;6.830;2023-03-01T12:35:47;14.73;;;6.88;;
23754;SDS011;12057;52.042;6.830;2023-03-01T12:51:26;14.77;;;5.93;;
23754;SDS011;12057;52.042;6.830;2023-03-01T12:56:31;15.70;;;6.90;;
23754;SDS011;12057;52.042;6.830;2023-03-01T13:11:42;13.43;;;6.22;;
23754;SDS011;12057;52.042;6.830;2023-03-01T13:16:43;11.57;;;5.63;;
23754;SDS011;12057;52.042;6.830;2023-03-01T13:21:45;13.15;;;5.53;;
23754;SDS011;12057;52.042;6.830;2023-03-01T13:32:07;15.25;;;5.38;;
23754;SDS011;12057;52.042;6.830;2023-03-01T13:37:29;10.15;;;5.40;;
23754;SDS011;12057;52.042;6.830;2023-03-01T13:42:36;10.75;;;5.18;;
23754;SDS011;12057;52.042;6.830;2023-03-01T13:47:41;13.93;;;5.35;;
23754;SDS011;12057;52.042;6.830;2023-03-01T13:53:03;16.70;;;5.20;;
23754;SDS011;12057;52.042;6.830;2023-03-01T14:03:22;19.27;;;5.78;;
23754;SDS011;12057;52.042;6.830;2023-03-01T14:08:24;10.88;;;4.10;;
23754;SDS011;12057;52.042;6.830;2023-03-01T14:24:20;10.57;;;4.55;;
23754;SDS011;12057;52.042;6.830;2023-03-01T14:29:40;7.90;;;3.95;;
23754;SDS011;12057;52.042;6.830;2023-03-01T14:34:45;10.70;;;4.35;;
23754;SDS011;12057;52.042;6.830;2023-03-01T14:39:48;17.80;;;4.88;;
23754;SDS011;12057;52.042;6.830;2023-03-01T14:44:50;15.07;;;4.80;;
23754;SDS011;12057;52.042;6.830;2023-03-01T14:49:54;10.43;;;4.50;;
23754;SDS011;12057;52.042;6.830;2023-03-01T14:55:52;8.63;;;4.30;;
23754;SDS011;12057;52.042;6.830;2023-03-01T15:00:37;16.55;;;5.15;;
23754;SDS011;12057;52.042;6.830;2023-03-01T15:05:45;11.30;;;4.20;;
23754;SDS011;12057;52.042;6.830;2023-03-01T15:10:56;7.30;;;3.37;;
23754;SDS011;12057;52.042;6.830;2023-03-01T15:16:13;11.77;;;3.83;;
23754;SDS011;12057;52.042;6.830;2023-03-01T15:21:16;14.68;;;4.22;;
23754;SDS011;12057;52.042;6.830;2023-03-01T15:26:22;9.88;;;3.88;;
23754;SDS011;12057;52.042;6.830;2023-03-01T15:31:25;13.52;;;3.85;;
23754;SDS011;12057;52.042;6.830;2023-03-01T15:41:47;13.30;;;5.72;;
23754;SDS011;12057;52.042;6.830;2023-03-01T15:46:48;16.17;;;4.72;;
23754;SDS011;12057;52.042;6.830;2023-03-01T15:51:49;15.82;;;5.22;;
23754;SDS011;12057;52.042;6.830;2023-03-01T16:01:52;8.77;;;4.47;;
23754;SDS011;12057;52.042;6.830;2023-03-01T16:06:53;14.32;;;4.47;;
23754;SDS011;12057;52.042;6.830;2023-03-01T16:11:55;9.48;;;4.35;;
23754;SDS011;12057;52.042;6.830;2023-03-01T16:16:56;8.73;;;3.92;;
23754;SDS011;12057;52.042;6.830;2023-03-01T16:21:57;14.55;;;4.88;;
23754;SDS011;12057;52.042;6.830;2023-03-01T16:26:58;17.45;;;7.00;;
23754;SDS011;12057;52.042;6.830;2023-03-01T16:32:00;15.38;;;5.13;;
23754;SDS011;12057;52.042;6.830;2023-03-01T16:37:01;9.43;;;3.58;;
23754;SDS011;12057;52.042;6.830;2023-03-01T16:42:02;9.40;;;3.95;;
23754;SDS011;12057;52.042;6.830;2023-03-01T16:47:03;10.52;;;3.70;;
23754;SDS011;12057;52.042;6.830;2023-03-01T16:52:05;15.10;;;4.35;;
23754;SDS011;12057;52.042;6.830;2023-03-01T16:57:06;14.38;;;4.57;;
23754;SDS011;12057;52.042;6.830;2023-03-01T17:02:10;16.85;;;4.40;;
23754;SDS011;12057;52.042;6.830;2023-03-01T17:07:12;30.02;;;9.38;;
23754;SDS011;12057;52.042;6.830;2023-03-01T17:12:14;11.40;;;3.85;;
23754;SDS011;12057;52.042;6.830;2023-03-01T17:22:16;14.00;;;5.33;;
23754;SDS011;12057;52.042;6.830;2023-03-01T17:27:17;28.70;;;7.85;;
23754;SDS011;12057;52.042;6.830;2023-03-01T17:32:18;26.23;;;7.72;;
23754;SDS011;12057;52.042;6.830;2023-03-01T17:37:19;18.90;;;5.97;;
23754;SDS011;12057;52.042;6.830;2023-03-01T17:42:20;25.42;;;9.10;;
23754;SDS011;12057;52.042;6.830;2023-03-01T17:47:22;17.13;;;6.70;;
23754;SDS011;12057;52.042;6.830;2023-03-01T17:52:23;22.85;;;5.55;;
23754;SDS011;12057;52.042;6.830;2023-03-01T17:57:24;17.15;;;4.80;;
23754;SDS011;12057;52.042;6.830;2023-03-01T18:02:25;10.70;;;4.68;;
23754;SDS011;12057;52.042;6.830;2023-03-01T18:07:26;10.95;;;4.68;;
23754;SDS011;12057;52.042;6.830;2023-03-01T18:12:28;12.70;;;5.10;;
23754;SDS011;12057;52.042;6.830;2023-03-01T18:17:32;25.92;;;8.85;;
23754;SDS011;12057;52.042;6.830;2023-03-01T18:22:33;11.02;;;5.45;;
23754;SDS011;12057;52.042;6.830;2023-03-01T18:27:34;14.15;;;5.25;;
23754;SDS011;12057;52.042;6.830;2023-03-01T18:32:36;15.48;;;5.50;;
23754;SDS011;12057;52.042;6.830;2023-03-01T18:37:38;24.38;;;8.68;;
23754;SDS011;12057;52.042;6.830;2023-03-01T18:42:39;26.00;;;9.50;;
23754;SDS011;12057;52.042;6.830;2023-03-01T18:47:40;25.55;;;9.70;;
23754;SDS011;12057;52.042;6.830;2023-03-01T18:52:42;29.45;;;7.35;;
23754;SDS011;12057;52.042;6.830;2023-03-01T18:57:43;33.85;;;7.38;;
23754;SDS011;12057;52.042;6.830;2023-03-01T19:02:44;23.23;;;7.25;;
23754;SDS011;12057;52.042;6.830;2023-03-01T19:07:46;15.10;;;7.10;;
23754;SDS011;12057;52.042;6.830;2023-03-01T19:12:47;9.90;;;5.13;;
23754;SDS011;12057;52.042;6.830;2023-03-01T19:17:48;14.90;;;5.22;;
23754;SDS011;12057;52.042;6.830;2023-03-01T19:22:51;18.45;;;8.02;;
23754;SDS011;12057;52.042;6.830;2023-03-01T19:27:52;15.88;;;5.78;;
23754;SDS011;12057;52.042;6.830;2023-03-01T19:32:53;13.93;;;4.65;;
23754;SDS011;12057;52.042;6.830;2023-03-01T19:37:54;11.43;;;5.22;;
23754;SDS011;12057;52.042;6.830;2023-03-01T19:42:55;15.30;;;5.18;;
23754;SDS011;12057;52.042;6.830;2023-03-01T19:47:56;48.55;;;12.63;;
23754;SDS011;12057;52.042;6.830;2023-03-01T19:52:57;32.25;;;9.60;;
23754;SDS011;12057;52.042;6.830;2023-03-01T19:57:58;23.35;;;9.40;;
23754;SDS011;12057;52.042;6.830;2023-03-01T20:02:59;19.42;;;8.88;;
23754;SDS011;12057;52.042;6.830;2023-03-01T20:13:01;15.27;;;5.53;;
23754;SDS011;12057;52.042;6.830;2023-03-01T20:18:03;19.63;;;8.23;;
23754;SDS011;12057;52.042;6.830;2023-03-01T20:28:05;42.83;;;16.03;;
23754;SDS011;12057;52.042;6.830;2023-03-01T20:33:06;40.95;;;14.88;;
23754;SDS011;12057;52.042;6.830;2023-03-01T20:43:08;42.53;;;14.97;;
23754;SDS011;12057;52.042;6.830;2023-03-01T20:48:09;29.00;;;11.55;;
23754;SDS011;12057;52.042;6.830;2023-03-01T20:53:10;42.15;;;13.05;;
23754;SDS011;12057;52.042;6.830;2023-03-01T20:58:11;36.53;;;12.75;;
23754;SDS011;12057;52.042;6.830;2023-03-01T21:03:13;29.27;;;12.88;;
23754;SDS011;12057;52.042;6.830;2023-03-01T21:08:14;28.52;;;12.15;;
23754;SDS011;12057;52.042;6.830;2023-03-01T21:13:15;20.75;;;8.70;;
23754;SDS011;12057;52.042;6.830;2023-03-01T21:18:16;19.52;;;7.47;;
23754;SDS011;12057;52.042;6.830;2023-03-01T21:23:17;17.60;;;6.72;;
23754;SDS011;12057;52.042;6.830;2023-03-01T21:33:19;15.70;;;6.20;;
23754;SDS011;12057;52.042;6.830;2023-03-01T21:38:20;17.10;;;5.53;;
23754;SDS011;12057;52.042;6.830;2023-03-01T21:48:22;13.20;;;5.70;;
23754;SDS011;12057;52.042;6.830;2023-03-01T21:53:24;12.38;;;5.10;;
23754;SDS011;12057;52.042;6.830;2023-03-01T21:58:25;15.65;;;7.65;;
23754;SDS011;12057;52.042;6.830;2023-03-01T22:03:27;29.17;;;6.82;;
23754;SDS011;12057;52.042;6.830;2023-03-01T22:08:29;15.15;;;6.50;;
23754;SDS011;12057;52.042;6.830;2023-03-01T22:13:30;21.80;;;7.32;;
23754;SDS011;12057;52.042;6.830;2023-03-01T22:18:31;15.23;;;6.07;;
23754;SDS011;12057;52.042;6.830;2023-03-01T22:28:33;22.02;;;7.45;;
23754;SDS011;12057;52.042;6.830;2023-03-01T22:33:44;21.17;;;7.70;;
23754;SDS011;12057;52.042;6.830;2023-03-01T22:38:45;20.05;;;6.57;;
23754;SDS011;12057;52.042;6.830;2023-03-01T22:43:46;17.27;;;7.32;;
23754;SDS011;12057;52.042;6.830;2023-03-01T22:48:48;14.98;;;6.82;;
23754;SDS011;12057;52.042;6.830;2023-03-01T22:58:50;18.40;;;6.40;;
23754;SDS011;12057;52.042;6.830;2023-03-01T23:03:51;21.27;;;8.07;;
23754;SDS011;12057;52.042;6.830;2023-03-01T23:08:53;23.27;;;8.80;;
23754;SDS011;12057;52.042;6.830;2023-03-01T23:13:55;21.58;;;7.57;;
23754;SDS011;12057;52.042;6.830;2023-03-01T23:18:56;20.05;;;8.38;;
23754;SDS011;12057;52.042;6.830;2023-03-01T23:23:58;17.25;;;6.97;;
23754;SDS011;12057;52.042;6.830;2023-03-01T23:28:59;19.70;;;7.85;;
23754;SDS011;12057;52.042;6.830;2023-03-01T23:34:00;18.70;;;7.70;;
23754;SDS011;12057;52.042;6.830;2023-03-01T23:39:03;16.95;;;7.95;;
23754;SDS011;12057;52.042;6.830;2023-03-01T23:44:04;19.83;;;8.13;;
23754;SDS011;12057;52.042;6.830;2023-03-01T23:49:06;23.73;;;9.60;;
23754;SDS011;12057;52.042;6.830;2023-03-01T23:54:07;26.70;;;9.73;;
